Time;durP1;ratioP1;P1;durP2;ratioP2;P2;SDS_P1;SDS_P2;PMS_P1;PMS_P2;Temp;Humidity;BMP_temperature;BMP_pressure;BME280_temperature;BME280_humidity;BME280_pressure;Samples;Min_cycle;Max_cycle;Signal;HPM_P1;HPM_P2
2021/03/17 00:00:12;;;;;;;8.77;3.77;;;;;;;1.13;84.42;101003.94;5012230;28;20511;-69
2021/03/17 00:02:57;;;;;;;10.60;5.10;;;;;;;1.05;85.20;100999.34;5005050;28;20057;-69
2021/03/17 00:05:42;;;;;;;8.82;3.53;;;;;;;1.04;84.58;100997.56;5012172;28;20045;-69
2021/03/17 00:08:27;;;;;;;11.60;5.00;;;;;;;1.01;85.11;101000.06;5011940;28;20099;-70
2021/03/17 00:11:10;;;;;;;12.00;5.53;;;;;;;1.02;85.15;101003.53;5012179;28;20409;-69
2021/03/17 00:13:54;;;;;;;7.38;3.65;;;;;;;0.97;84.88;100990.38;5004545;28;20048;-69
2021/03/17 00:16:38;;;;;;;9.57;4.53;;;;;;;0.96;85.59;100992.91;5011773;28;20049;-69
2021/03/17 00:19:22;;;;;;;8.90;4.27;;;;;;;0.93;85.03;100997.97;5011944;28;20591;-69
2021/03/17 00:22:07;;;;;;;15.67;5.77;;;;;;;0.90;85.78;100995.25;5006290;28;20413;-69
2021/03/17 00:24:52;;;;;;;10.83;4.90;;;;;;;0.85;85.22;100992.47;5003888;28;20069;-69
2021/03/17 00:27:36;;;;;;;11.20;5.70;;;;;;;0.78;85.36;100996.53;5010735;28;20133;-69
2021/03/17 00:30:21;;;;;;;13.37;5.30;;;;;;;0.71;84.48;100998.81;5012076;28;20519;-69
2021/03/17 00:33:10;;;;;;;14.30;4.60;;;;;;;0.61;85.03;100989.75;5005727;28;20049;-69
2021/03/17 00:35:54;;;;;;;13.07;5.50;;;;;;;0.55;85.58;100999.88;5003843;28;20072;-70
2021/03/17 00:38:38;;;;;;;13.03;4.57;;;;;;;0.53;86.42;100994.63;5011553;28;20053;-69
2021/03/17 00:41:22;;;;;;;11.37;4.90;;;;;;;0.56;85.60;100999.06;5011431;28;20056;-70
2021/03/17 00:44:06;;;;;;;11.07;4.40;;;;;;;0.58;87.08;100989.66;5005869;28;20108;-70
2021/03/17 00:46:49;;;;;;;11.20;5.20;;;;;;;0.57;86.87;100996.53;5011438;28;20092;-70
2021/03/17 00:49:20;;;;;;;14.63;5.33;;;;;;;0.58;86.93;100997.44;5011650;28;20057;-69
2021/03/17 00:51:46;;;;;;;11.40;4.63;;;;;;;0.57;86.92;100990.44;5011687;28;20512;-70
2021/03/17 00:54:30;;;;;;;10.80;4.83;;;;;;;0.56;86.50;100996.47;5011578;28;20048;-69
2021/03/17 00:57:09;;;;;;;9.87;4.60;;;;;;;0.57;87.25;100990.44;5010219;28;20416;-70
2021/03/17 00:59:35;;;;;;;10.27;5.30;;;;;;;0.55;86.83;100992.09;5011297;28;20038;-70
2021/03/17 01:02:00;;;;;;;15.90;6.87;;;;;;;0.54;86.94;100991.22;5011634;28;20053;-69
2021/03/17 01:04:25;;;;;;;10.37;4.67;;;;;;;0.52;87.26;100982.47;5011450;28;20508;-70
2021/03/17 01:06:51;;;;;;;12.30;5.53;;;;;;;0.52;87.24;100981.56;5003206;28;20038;-69
2021/03/17 01:09:16;;;;;;;17.40;6.63;;;;;;;0.52;87.33;100984.19;5011174;28;20036;-69
2021/03/17 01:11:42;;;;;;;12.50;5.40;;;;;;;0.51;87.13;100990.22;5011387;28;20536;-69
2021/03/17 01:14:08;;;;;;;12.43;5.60;;;;;;;0.49;87.75;100987.53;5011459;28;20029;-69
2021/03/17 01:16:33;;;;;;;14.07;5.30;;;;;;;0.46;87.59;100992.59;5011049;28;20084;-69
2021/03/17 01:18:58;;;;;;;14.33;6.50;;;;;;;0.47;87.78;100990.88;5011248;28;20038;-69
2021/03/17 01:21:24;;;;;;;13.07;6.20;;;;;;;0.44;87.81;100992.53;5011358;28;20559;-69
2021/03/17 01:23:50;;;;;;;12.93;6.50;;;;;;;0.46;87.67;100991.72;5010094;28;20034;-70
2021/03/17 01:26:15;;;;;;;10.30;5.63;;;;;;;0.48;87.45;100985.75;5011238;28;20049;-69
2021/03/17 01:28:42;;;;;;;11.83;6.13;;;;;;;0.47;87.64;100983.09;5011146;28;20030;-69
2021/03/17 01:31:08;;;;;;;12.53;6.20;;;;;;;0.46;87.13;100992.59;5011220;28;20073;-69
2021/03/17 01:33:33;;;;;;;16.57;6.93;;;;;;;0.41;87.95;100989.81;5011126;28;20065;-70
2021/03/17 01:35:59;;;;;;;12.90;6.20;;;;;;;0.41;87.62;100989.81;5013787;28;20030;-69
2021/03/17 01:38:25;;;;;;;13.23;6.17;;;;;;;0.43;87.44;100992.47;5010937;28;20455;-69
2021/03/17 01:40:52;;;;;;;12.50;6.03;;;;;;;0.42;87.52;100989.00;5011080;28;20129;-69
2021/03/17 01:43:18;;;;;;;14.80;6.20;;;;;;;0.42;88.01;100993.31;5011125;28;20104;-69
2021/03/17 01:45:44;;;;;;;15.50;6.83;;;;;;;0.41;88.27;100988.91;5010799;28;20492;-69
2021/03/17 01:48:10;;;;;;;11.47;5.77;;;;;;;0.37;88.48;100993.13;5011128;28;20385;-69
2021/03/17 01:50:46;;;;;;;15.57;6.77;;;;;;;0.34;88.34;100997.25;5011550;28;20041;-69
2021/03/17 01:53:21;;;;;;;18.07;6.27;;;;;;;0.31;87.96;101003.22;5014696;28;20041;-69
2021/03/17 01:55:46;;;;;;;19.57;7.07;;;;;;;0.29;88.40;101003.97;5014390;28;20042;-69
2021/03/17 01:58:12;;;;;;;13.60;5.37;;;;;;;0.28;88.31;101003.09;5014505;28;20034;-69
2021/03/17 02:00:39;;;;;;;20.83;5.67;;;;;;;0.25;88.52;101000.38;5014339;28;20034;-69
2021/03/17 02:03:07;;;;;;;13.63;5.97;;;;;;;0.22;88.92;101008.91;5014527;28;20029;-69
2021/03/17 02:05:35;;;;;;;17.90;5.70;;;;;;;0.18;88.45;100996.63;5014105;28;20083;-69
2021/03/17 02:08:05;;;;;;;13.90;7.43;;;;;;;0.17;88.11;100999.16;5014239;28;20033;-69
2021/03/17 02:10:31;;;;;;;17.30;8.50;;;;;;;0.13;88.17;100997.22;5013024;28;20079;-69
2021/03/17 02:13:06;;;;;;;14.13;6.00;;;;;;;0.06;88.08;100996.09;5014320;28;20042;-70
2021/03/17 02:15:41;;;;;;;14.07;6.27;;;;;;;0.04;88.14;100991.66;5013899;28;20034;-70
2021/03/17 02:18:24;;;;;;;12.67;5.77;;;;;;;0.05;88.83;100999.50;5014057;28;20191;-69
2021/03/17 02:21:18;;;;;;;18.00;6.10;;;;;;;0.06;89.15;101008.19;5014103;28;20041;-69
2021/03/17 02:23:52;;;;;;;14.40;6.40;;;;;;;0.02;88.06;100998.47;5014069;28;20060;-69
2021/03/17 02:26:51;;;;;;;17.03;6.20;;;;;;;0.02;88.81;100998.47;5013773;28;20137;-69
2021/03/17 02:29:47;;;;;;;14.93;6.70;;;;;;;0.08;89.44;101003.94;5009194;28;20030;-70
2021/03/17 02:32:17;;;;;;;18.13;7.10;;;;;;;0.11;89.45;100998.91;5008803;28;20041;-70
2021/03/17 02:34:46;;;;;;;13.93;6.27;;;;;;;0.17;88.98;101001.75;5013700;28;20037;-69
2021/03/17 02:37:17;;;;;;;16.17;7.17;;;;;;;0.23;89.85;101004.59;5013597;28;20034;-70
2021/03/17 02:39:49;;;;;;;18.02;7.32;;;;;;;0.32;89.77;101010.19;5013616;28;20133;-69
2021/03/17 02:42:23;;;;;;;12.37;6.53;;;;;;;0.39;89.07;101001.84;5013720;28;20037;-69
2021/03/17 02:44:53;;;;;;;13.87;6.40;;;;;;;0.51;89.98;101001.47;5013606;28;20128;-69
2021/03/17 02:47:19;;;;;;;15.97;8.37;;;;;;;0.64;89.47;101008.06;5013615;28;20151;-69
2021/03/17 02:49:48;;;;;;;20.20;7.63;;;;;;;0.76;89.50;101000.78;5013422;28;20034;-69
2021/03/17 02:52:14;;;;;;;11.50;6.03;;;;;;;0.91;89.12;100999.63;5013665;28;20041;-69
2021/03/17 02:54:44;;;;;;;17.13;7.40;;;;;;;1.00;89.82;100998.28;5013393;28;20176;-69
2021/03/17 02:57:23;;;;;;;16.97;6.23;;;;;;;1.18;89.55;101003.34;5013205;28;20038;-69
2021/03/17 02:59:54;;;;;;;13.10;6.37;;;;;;;1.32;88.68;101001.25;5013179;28;20035;-69
2021/03/17 03:02:21;;;;;;;17.20;7.83;;;;;;;1.45;88.99;101002.63;5012732;28;20389;-69
2021/03/17 03:04:49;;;;;;;16.33;6.13;;;;;;;1.59;87.97;101001.41;5013240;28;20038;-69
2021/03/17 03:07:14;;;;;;;13.73;5.80;;;;;;;1.69;87.56;100998.34;5012908;28;20042;-69
2021/03/17 03:09:41;;;;;;;15.80;7.10;;;;;;;1.82;87.21;101002.28;5013021;28;20040;-69
2021/03/17 03:12:08;;;;;;;9.88;5.25;;;;;;;1.89;87.12;100996.47;5012937;28;20045;-70
2021/03/17 03:14:33;;;;;;;18.30;7.38;;;;;;;1.97;85.91;101004.56;5013105;28;20037;-69
2021/03/17 03:17:01;;;;;;;12.35;6.15;;;;;;;2.03;84.93;101003.91;5012810;28;20109;-69
2021/03/17 03:19:32;;;;;;;15.65;6.45;;;;;;;2.06;85.25;101004.00;5012803;28;20104;-69
2021/03/17 03:21:58;;;;;;;16.15;6.78;;;;;;;2.04;84.30;101001.31;5011732;28;20113;-69
2021/03/17 03:24:24;;;;;;;17.92;5.68;;;;;;;2.05;84.43;101005.72;5012878;28;20037;-69
2021/03/17 03:26:54;;;;;;;15.73;5.32;;;;;;;2.00;84.96;101001.19;5012442;28;20036;-69
2021/03/17 03:29:19;;;;;;;13.57;5.03;;;;;;;2.00;83.59;101009.00;5012734;28;20030;-70
2021/03/17 03:31:48;;;;;;;10.13;4.82;;;;;;;1.85;84.53;101009.31;5012734;28;20507;-69
2021/03/17 03:34:15;;;;;;;11.82;5.50;;;;;;;1.70;84.15;101009.63;5012638;28;20100;-69
2021/03/17 03:36:41;;;;;;;14.75;5.47;;;;;;;1.63;85.05;101018.94;5016209;28;20083;-70
2021/03/17 03:39:07;;;;;;;13.27;6.10;;;;;;;1.62;85.34;101008.44;5018511;28;20547;-69
2021/03/17 03:41:32;;;;;;;12.95;5.47;;;;;;;1.66;85.18;101011.25;5012473;28;20084;-70
2021/03/17 03:43:58;;;;;;;11.00;5.95;;;;;;;1.70;85.54;101010.53;5012512;28;20087;-69
2021/03/17 03:46:24;;;;;;;12.82;5.97;;;;;;;1.77;85.22;101013.34;5012326;28;20033;-70
2021/03/17 03:48:49;;;;;;;17.23;6.47;;;;;;;1.84;84.49;101010.16;5012377;28;20558;-69
2021/03/17 03:51:18;;;;;;;15.77;6.95;;;;;;;1.85;84.57;101011.91;5012419;28;20046;-70
2021/03/17 03:53:47;;;;;;;15.10;6.45;;;;;;;1.86;85.16;101009.38;5012290;28;20514;-70
2021/03/17 03:56:17;;;;;;;13.32;6.00;;;;;;;1.93;84.84;101013.09;5012090;28;20030;-70
2021/03/17 03:58:55;;;;;;;14.32;5.68;;;;;;;1.98;84.24;101007.22;5012128;28;20480;-70
2021/03/17 04:01:37;;;;;;;13.70;5.65;;;;;;;2.09;83.73;101010.19;5012316;28;20081;-70
2021/03/17 04:04:09;;;;;;;;;;;;;;;1.96;83.61;101013.19;5006126;28;20073;-69
2021/03/17 04:06:34;;;;;;;11.65;5.43;;;;;;;2.02;84.03;101021.25;5011893;28;19917;-69
2021/03/17 04:09:01;;;;;;;16.00;5.22;;;;;;;2.09;83.75;101024.94;5011929;28;20029;-70
2021/03/17 04:11:27;;;;;;;15.35;4.97;;;;;;;2.11;83.46;101024.16;5012014;28;20049;-69
2021/03/17 04:13:55;;;;;;;9.30;5.10;;;;;;;2.11;83.47;101021.56;5011973;28;20038;-70
2021/03/17 04:16:22;;;;;;;12.48;5.05;;;;;;;2.09;83.56;101019.72;5011834;28;20041;-69
2021/03/17 04:18:50;;;;;;;14.48;4.82;;;;;;;2.15;83.28;101019.97;5011657;28;20041;-70
2021/03/17 04:21:37;;;;;;;14.93;5.55;;;;;;;2.17;83.36;101028.69;5011894;28;20084;-69
2021/03/17 04:24:05;;;;;;;12.57;4.53;;;;;;;2.19;83.09;101024.44;5005440;28;20385;-69
2021/03/17 04:26:33;;;;;;;13.15;5.03;;;;;;;2.19;83.25;101024.44;5011454;28;20042;-70
2021/03/17 04:29:01;;;;;;;10.57;3.90;;;;;;;2.22;82.81;101031.47;5011709;28;20026;-70
2021/03/17 04:31:27;;;;;;;14.10;4.20;;;;;;;2.23;82.69;101026.34;5011676;28;20052;-69
2021/03/17 04:41:23;;;;;;;14.95;4.55;;;;;;;2.29;82.05;101023.06;5007479;28;20562;-69
2021/03/17 04:43:48;;;;;;;8.13;3.65;;;;;;;2.30;82.45;101020.47;5009333;28;20604;-69
2021/03/17 04:46:15;;;;;;;12.77;4.70;;;;;;;2.26;82.20;101026.44;5011147;28;20034;-69
2021/03/17 04:48:45;;;;;;;12.13;4.13;;;;;;;2.23;82.22;101028.94;5011380;28;20033;-69
2021/03/17 04:51:15;;;;;;;14.25;3.80;;;;;;;2.22;81.84;101032.34;5011613;28;20085;-69
2021/03/17 04:53:41;;;;;;;9.90;4.35;;;;;;;2.29;82.06;101036.06;5011339;28;20092;-69
2021/03/17 04:56:07;;;;;;;9.40;4.10;;;;;;;2.28;81.80;101032.59;5011137;28;20038;-69
2021/03/17 04:58:36;;;;;;;8.80;4.20;;;;;;;2.34;81.50;101031.91;5011273;28;20073;-69
2021/03/17 05:01:11;;;;;;;12.90;3.78;;;;;;;2.29;81.64;101036.94;5011660;28;20447;-69
2021/03/17 05:03:39;;;;;;;16.17;3.88;;;;;;;2.32;81.82;101038.78;5011465;28;20037;-69
2021/03/17 05:06:05;;;;;;;11.77;4.13;;;;;;;2.35;81.80;101041.50;5011061;28;20065;-70
2021/03/17 05:08:31;;;;;;;11.32;4.05;;;;;;;2.32;81.91;101049.19;5011161;28;20038;-69
2021/03/17 05:10:57;;;;;;;9.38;3.83;;;;;;;2.35;81.50;101042.38;5011269;28;20076;-70
2021/03/17 05:13:23;;;;;;;10.48;4.68;;;;;;;2.40;81.44;101042.53;5011321;28;20034;-69
2021/03/17 05:15:50;;;;;;;9.98;3.90;;;;;;;2.42;80.91;101048.69;5011009;28;20201;-70
2021/03/17 05:18:17;;;;;;;9.88;3.75;;;;;;;2.44;81.62;101044.44;5009218;28;20033;-70
2021/03/17 05:20:46;;;;;;;10.05;3.65;;;;;;;2.51;80.71;101051.59;5009776;28;20034;-70
2021/03/17 05:23:13;;;;;;;8.23;4.07;;;;;;;2.48;80.67;101045.41;5011261;28;20108;-70
2021/03/17 05:25:39;;;;;;;9.52;3.38;;;;;;;2.50;80.29;101052.44;5011600;28;20396;-70
2021/03/17 05:28:04;;;;;;;17.02;4.05;;;;;;;2.45;80.23;101046.19;5015010;28;20037;-70
2021/03/17 05:30:36;;;;;;;8.95;3.85;;;;;;;2.43;80.75;101047.84;5014946;28;20037;-70
2021/03/17 05:33:04;;;;;;;10.10;4.28;;;;;;;2.47;80.88;101044.53;5016882;28;20030;-70
2021/03/17 05:35:30;;;;;;;9.80;3.35;;;;;;;2.48;81.03;101050.63;5015021;28;20045;-70
2021/03/17 05:37:55;;;;;;;10.73;4.10;;;;;;;2.53;80.10;101055.16;5014833;28;20030;-70
2021/03/17 05:40:21;;;;;;;8.43;2.92;;;;;;;2.49;80.40;101058.50;5014744;28;20042;-69
2021/03/17 05:42:46;;;;;;;8.38;3.05;;;;;;;2.53;79.60;101051.69;5014742;28;20048;-70
2021/03/17 05:45:21;;;;;;;8.95;3.55;;;;;;;2.43;80.11;101058.28;5014437;28;20551;-70
2021/03/17 05:47:48;;;;;;;14.02;3.10;;;;;;;2.41;79.56;101059.94;5014292;28;20050;-70
2021/03/17 05:50:16;;;;;;;7.68;3.20;;;;;;;2.46;80.18;101074.00;5014636;28;20062;-70
2021/03/17 05:52:43;;;;;;;11.38;3.28;;;;;;;2.48;79.78;101072.34;5014515;28;20103;-70
2021/03/17 05:55:10;;;;;;;12.25;3.63;;;;;;;2.50;nan;101075.03;5014258;28;20034;-70
2021/03/17 05:57:37;;;;;;;12.70;4.07;;;;;;;2.41;79.39;101071.25;5014321;28;20064;-69
2021/03/17 06:00:09;;;;;;;9.52;3.15;;;;;;;2.46;79.46;101084.44;5014438;28;20038;-70
2021/03/17 06:02:36;;;;;;;9.05;3.20;;;;;;;2.46;80.05;101083.53;5014466;28;20451;-70
2021/03/17 06:05:04;;;;;;;12.65;3.13;;;;;;;2.53;79.35;101083.81;5014154;28;20090;-70
2021/03/17 06:07:52;;;;;;;10.48;2.92;;;;;;;2.48;79.58;101092.31;5014101;28;20038;-70
2021/03/17 06:10:19;;;;;;;13.90;3.78;;;;;;;2.46;79.02;101088.75;5014297;28;20026;-70
2021/03/17 06:12:48;;;;;;;9.98;3.42;;;;;;;2.50;78.63;101091.53;5014150;28;20026;-70
2021/03/17 06:15:19;;;;;;;9.07;3.72;;;;;;;2.49;78.86;101094.06;5013994;28;20030;-70
2021/03/17 06:17:48;;;;;;;9.05;4.20;;;;;;;2.47;78.92;101095.75;5014090;28;20117;-70
2021/03/17 06:20:14;;;;;;;10.20;4.03;;;;;;;2.47;79.12;101096.63;5013998;28;20037;-70
2021/03/17 06:22:40;;;;;;;18.80;3.60;;;;;;;2.47;78.82;101091.44;5014051;28;20084;-70
2021/03/17 06:25:07;;;;;;;12.35;4.13;;;;;;;2.66;78.09;101097.28;5014030;28;20029;-70
2021/03/17 06:27:41;;;;;;;12.90;4.38;;;;;;;2.56;78.10;101096.06;5013818;28;20042;-70
2021/03/17 06:30:08;;;;;;;10.18;3.50;;;;;;;2.46;79.00;101099.19;5013883;28;20026;-70
2021/03/17 06:32:34;;;;;;;11.38;3.78;;;;;;;2.49;78.72;101100.19;5013828;28;20030;-70
2021/03/17 06:35:01;;;;;;;11.75;4.05;;;;;;;2.55;78.49;101100.41;5013655;28;20037;-71
2021/03/17 06:37:39;;;;;;;13.02;3.35;;;;;;;2.56;78.62;101102.16;5012424;28;20048;-70
2021/03/17 06:40:20;;;;;;;13.35;3.97;;;;;;;2.60;78.67;101104.06;5007431;28;20670;-70
2021/03/17 06:42:46;;;;;;;9.35;3.20;;;;;;;2.60;78.16;101108.41;5013766;28;20488;-70
2021/03/17 06:45:12;;;;;;;9.27;3.10;;;;;;;2.56;78.31;101109.09;5013457;28;20034;-70
2021/03/17 06:47:37;;;;;;;10.95;3.08;;;;;;;2.50;78.65;101112.38;5013649;28;20033;-70
2021/03/17 06:50:08;;;;;;;9.48;3.63;;;;;;;2.55;78.49;101110.81;5013463;28;20125;-70
2021/03/17 06:52:41;;;;;;;10.20;3.47;;;;;;;2.57;79.43;101116.09;5013429;28;20050;-70
2021/03/17 06:55:07;;;;;;;;;;;;;;;2.53;78.64;101112.47;5013944;28;20439;-71
2021/03/17 06:57:34;;;;;;;10.52;3.30;;;;;;;2.60;78.32;101111.88;5013370;28;20388;-70
2021/03/17 07:00:38;;;;;;;16.00;3.30;;;;;;;2.60;78.40;101119.69;5013297;28;20076;-70
2021/03/17 07:03:12;;;;;;;9.82;3.45;;;;;;;2.68;78.64;101122.56;4936503;29;20133;-70
2021/03/17 07:05:39;;;;;;;11.57;3.92;;;;;;;2.83;78.06;101128.31;4952235;29;20550;-70
2021/03/17 07:08:09;;;;;;;12.07;3.00;;;;;;;2.88;78.02;101130.19;4984722;28;20510;-70
2021/03/17 07:10:41;;;;;;;7.82;2.78;;;;;;;3.00;77.58;101128.00;5013097;28;20488;-70
2021/03/17 07:13:09;;;;;;;6.20;2.85;;;;;;;3.04;77.17;101119.47;5012992;28;20045;-70
2021/03/17 07:15:37;;;;;;;11.65;4.15;;;;;;;3.23;77.76;101116.63;5012799;28;20034;-70
2021/03/17 07:18:28;;;;;;;9.52;3.42;;;;;;;3.23;76.02;101114.03;5013259;28;20038;-70
2021/03/17 07:20:55;;;;;;;13.32;3.15;;;;;;;3.25;76.70;101121.91;5004962;28;20474;-70
2021/03/17 07:23:39;;;;;;;15.20;3.90;;;;;;;3.29;75.78;101118.56;5012946;28;20030;-70
2021/03/17 07:26:33;;;;;;;11.60;3.55;;;;;;;3.26;76.18;101119.34;5006336;28;20050;-70
2021/03/17 07:29:13;;;;;;;13.90;3.47;;;;;;;3.38;76.08;101121.47;5000197;28;20052;-71
2021/03/17 07:31:42;;;;;;;11.43;3.63;;;;;;;3.34;76.29;101121.31;5012748;28;20120;-70
2021/03/17 07:34:19;;;;;;;11.55;4.05;;;;;;;3.41;76.04;101120.69;5015251;28;20049;-70
2021/03/17 07:37:18;;;;;;;9.55;3.20;;;;;;;3.44;75.11;101126.00;5012663;28;20377;-70
2021/03/17 07:39:43;;;;;;;11.82;3.78;;;;;;;3.37;75.02;101132.72;4999515;28;20477;-70
2021/03/17 07:42:11;;;;;;;10.00;4.22;;;;;;;3.18;75.43;101131.25;5012647;28;20053;-70
2021/03/17 07:44:39;;;;;;;21.63;3.97;;;;;;;3.17;75.96;101133.78;5012512;28;20029;-70
2021/03/17 07:47:08;;;;;;;15.50;4.28;;;;;;;3.31;75.54;101129.94;5012195;28;20034;-70
2021/03/17 07:49:35;;;;;;;14.10;4.10;;;;;;;3.42;75.55;101125.94;5011921;28;20038;-71
2021/03/17 07:52:02;;;;;;;12.93;4.18;;;;;;;3.47;74.80;101129.56;5012580;28;20100;-70
2021/03/17 07:54:32;;;;;;;12.15;3.28;;;;;;;3.49;74.48;101137.47;5012392;28;20033;-70
2021/03/17 07:56:59;;;;;;;12.45;4.18;;;;;;;3.53;74.40;101128.88;5011996;28;20045;-71
2021/03/17 07:59:25;;;;;;;11.77;4.30;;;;;;;3.54;74.54;101130.69;5012179;28;20034;-70
2021/03/17 08:01:52;;;;;;;9.98;4.18;;;;;;;3.57;75.32;101122.06;5012280;28;20115;-70
2021/03/17 08:04:21;;;;;;;11.45;4.45;;;;;;;3.55;74.31;101134.16;5012204;28;20080;-70
2021/03/17 08:06:47;;;;;;;10.18;4.40;;;;;;;3.65;74.53;101137.13;5011927;28;20091;-70
2021/03/17 08:09:13;;;;;;;11.23;4.60;;;;;;;3.64;74.05;101137.06;5011936;28;20030;-70
2021/03/17 08:11:39;;;;;;;12.85;4.85;;;;;;;3.62;74.72;101128.31;5056332;23;20050;-72
2021/03/17 08:14:07;;;;;;;12.93;5.32;;;;;;;3.61;74.16;101129.13;5003523;28;20099;-72
2021/03/17 08:16:34;;;;;;;19.52;7.32;;;;;;;3.66;75.56;101132.78;5002876;28;20146;-72
2021/03/17 08:19:00;;;;;;;12.50;4.82;;;;;;;3.69;74.43;101140.69;5001133;28;20058;-74
2021/03/17 08:21:49;;;;;;;13.10;4.80;;;;;;;3.74;74.46;101131.28;5011480;28;20056;-73
2021/03/17 08:24:30;;;;;;;12.68;5.38;;;;;;;3.74;74.01;101139.13;5000977;28;20034;-72
2021/03/17 08:26:56;;;;;;;13.65;4.93;;;;;;;3.65;73.74;101139.72;5000281;28;20370;-73
2021/03/17 08:29:22;;;;;;;14.63;5.05;;;;;;;3.70;73.62;101135.53;5000152;28;20030;-72
2021/03/17 08:31:49;;;;;;;11.65;5.07;;;;;;;3.60;74.20;101145.66;5001278;28;20042;-72
2021/03/17 08:34:17;;;;;;;12.43;4.80;;;;;;;3.74;73.83;101137.38;5010703;28;20038;-72
2021/03/17 08:36:43;;;;;;;11.38;4.93;;;;;;;3.73;73.93;101142.59;5009117;28;20030;-73
2021/03/17 08:39:08;;;;;;;10.82;5.15;;;;;;;3.89;73.57;101142.22;4999824;28;20111;-72
2021/03/17 08:41:37;;;;;;;11.68;5.65;;;;;;;3.91;73.91;101137.94;5000896;28;20484;-72
2021/03/17 08:44:13;;;;;;;19.80;5.68;;;;;;;4.04;73.22;101139.19;5003384;28;20041;-72
2021/03/17 08:46:39;;;;;;;10.77;4.72;;;;;;;4.12;73.06;101137.69;5001646;28;20033;-72
2021/03/17 08:49:06;;;;;;;15.00;5.25;;;;;;;4.28;72.47;101143.38;5000011;28;20409;-72
2021/03/17 08:51:46;;;;;;;14.63;5.93;;;;;;;4.33;72.78;101137.44;5000464;28;20041;-72
2021/03/17 08:54:44;;;;;;;14.07;5.65;;;;;;;4.45;71.97;101136.88;5003307;28;20042;-72
2021/03/17 08:57:12;;;;;;;16.92;5.72;;;;;;;4.46;72.50;101143.00;4999764;28;20489;-72
2021/03/17 08:59:43;;;;;;;14.60;6.13;;;;;;;4.61;71.79;101144.34;5001187;28;20056;-72
2021/03/17 09:02:31;;;;;;;12.75;5.90;;;;;;;4.68;71.97;101139.25;5006433;28;20033;-73
2021/03/17 09:05:04;;;;;;;15.23;6.97;;;;;;;4.74;70.39;101148.16;5000446;28;20058;-72
2021/03/17 09:07:34;;;;;;;12.77;6.22;;;;;;;4.75;70.58;101155.16;5009132;28;20033;-72
2021/03/17 09:10:12;;;;;;;12.68;6.40;;;;;;;4.63;71.23;101152.19;5010625;28;20390;-72
2021/03/17 09:12:37;;;;;;;14.80;5.85;;;;;;;4.70;70.87;101153.28;5004965;28;20050;-73
2021/03/17 09:15:17;;;;;;;18.35;6.70;;;;;;;4.67;70.91;101148.84;5006834;28;20050;-72
2021/03/17 09:17:47;;;;;;;11.60;6.65;;;;;;;4.66;71.09;101154.91;5005011;28;20116;-72
2021/03/17 09:20:30;;;;;;;13.60;6.78;;;;;;;4.75;70.85;101152.53;5003409;28;20061;-72
2021/03/17 09:23:20;;;;;;;13.27;7.22;;;;;;;4.97;69.98;101148.75;5003600;28;20093;-72
2021/03/17 09:25:51;;;;;;;16.27;5.88;;;;;;;5.15;69.76;101147.50;5005441;28;20042;-72
2021/03/17 09:28:25;;;;;;;14.48;6.72;;;;;;;5.09;69.56;101147.34;5010385;28;20038;-72
2021/03/17 09:30:53;;;;;;;15.55;6.45;;;;;;;5.16;70.84;101147.53;5006548;28;20062;-73
2021/03/17 09:33:22;;;;;;;16.77;6.90;;;;;;;5.40;67.99;101151.63;5006556;28;20068;-73
2021/03/17 09:36:00;;;;;;;14.32;6.20;;;;;;;5.24;69.33;101155.59;5003711;28;20493;-73
2021/03/17 09:38:29;;;;;;;13.45;7.20;;;;;;;5.21;68.64;101160.72;4998583;28;20038;-72
2021/03/17 09:41:20;;;;;;;14.40;6.60;;;;;;;5.14;68.52;101146.59;5003005;28;20038;-72
2021/03/17 09:43:47;;;;;;;11.38;6.38;;;;;;;5.17;68.90;101154.53;4998074;28;20081;-72
2021/03/17 09:46:36;;;;;;;12.75;6.20;;;;;;;5.36;68.97;101165.47;5002936;28;20042;-73
2021/03/17 09:49:07;;;;;;;18.75;7.45;;;;;;;5.30;68.00;101160.97;5000149;28;20042;-73
2021/03/17 09:51:43;;;;;;;14.93;6.15;;;;;;;5.44;67.09;101161.31;5003709;28;20057;-73
2021/03/17 09:54:11;;;;;;;15.98;6.68;;;;;;;5.65;66.83;101151.34;5006382;28;20485;-73
2021/03/17 09:56:40;;;;;;;13.57;6.72;;;;;;;5.80;66.86;101155.19;5004955;28;20711;-73
2021/03/17 09:59:13;;;;;;;10.25;5.30;;;;;;;5.83;66.14;101148.28;5002905;28;20039;-72
2021/03/17 10:02:04;;;;;;;11.88;5.95;;;;;;;5.98;67.17;101158.25;5004486;28;20409;-73
2021/03/17 10:04:42;;;;;;;13.65;5.70;;;;;;;5.82;66.15;101153.50;5005798;28;20448;-73
2021/03/17 10:07:29;;;;;;;13.73;6.65;;;;;;;5.60;67.52;101160.81;5002669;28;20080;-72
2021/03/17 10:09:56;;;;;;;12.95;6.57;;;;;;;5.50;67.00;101164.06;5002313;28;20049;-73
2021/03/17 10:12:31;;;;;;;13.45;5.97;;;;;;;5.20;67.20;101166.81;5002458;28;20390;-72
2021/03/17 10:15:07;;;;;;;12.52;6.10;;;;;;;5.06;68.08;101166.47;4998480;28;20038;-72
2021/03/17 10:17:34;;;;;;;13.80;5.97;;;;;;;4.88;68.49;101166.84;5005313;28;20045;-73
2021/03/17 10:20:06;;;;;;;10.43;4.78;;;;;;;4.73;69.57;101169.91;5002364;28;20034;-73
2021/03/17 10:22:31;;;;;;;10.93;5.90;;;;;;;4.73;68.92;101172.53;5002985;28;20046;-73
2021/03/17 10:25:00;;;;;;;11.88;5.90;;;;;;;4.80;69.69;101171.88;5005939;28;20087;-73
2021/03/17 10:27:30;;;;;;;13.55;6.22;;;;;;;4.82;69.61;101175.41;5004752;28;20652;-72
2021/03/17 10:30:02;;;;;;;12.68;5.70;;;;;;;4.75;69.73;101163.00;5002346;28;20117;-73
2021/03/17 10:32:27;;;;;;;11.52;5.60;;;;;;;4.81;69.66;101163.16;5001166;28;20030;-73
2021/03/17 10:34:53;;;;;;;11.35;5.15;;;;;;;4.78;70.19;101170.94;5004160;28;20389;-73
2021/03/17 10:37:21;;;;;;;13.48;5.95;;;;;;;4.77;70.75;101163.94;5009548;28;20030;-73
2021/03/17 10:39:51;;;;;;;13.88;6.38;;;;;;;4.81;70.50;101165.78;5011239;28;20029;-72
2021/03/17 10:42:23;;;;;;;12.90;5.80;;;;;;;4.77;70.03;101168.28;5007245;28;20045;-72
2021/03/17 10:45:15;;;;;;;10.18;5.00;;;;;;;4.56;70.53;101172.06;5013385;28;20049;-72
2021/03/17 10:47:42;;;;;;;9.05;5.00;;;;;;;4.49;70.44;101169.25;5003584;28;20038;-73
2021/03/17 10:50:11;;;;;;;11.50;6.15;;;;;;;4.44;72.08;101176.06;5007150;28;20033;-72
2021/03/17 10:52:42;;;;;;;11.57;5.00;;;;;;;4.55;71.11;101172.91;5005318;28;20049;-72
2021/03/17 10:55:16;;;;;;;11.05;6.07;;;;;;;4.58;71.69;101175.63;5005017;28;20034;-74
2021/03/17 10:57:44;;;;;;;12.00;5.75;;;;;;;4.56;71.23;101181.66;5005115;28;20037;-75
2021/03/17 11:00:15;;;;;;;12.98;6.10;;;;;;;4.55;70.87;101175.50;5011461;28;20029;-73
2021/03/17 11:02:41;;;;;;;14.00;5.82;;;;;;;4.55;71.19;101187.69;5027500;28;20033;-73
2021/03/17 11:05:08;;;;;;;13.68;6.00;;;;;;;4.53;70.97;101176.31;5004704;28;20511;-73
2021/03/17 11:08:06;;;;;;;14.07;5.25;;;;;;;4.53;71.01;101182.44;5004299;28;20033;-73
2021/03/17 11:10:32;;;;;;;12.70;5.65;;;;;;;4.65;71.21;101183.63;4999311;28;20046;-73
2021/03/17 11:13:21;;;;;;;12.50;6.55;;;;;;;4.80;70.45;101174.47;5005138;28;20052;-73
2021/03/17 11:15:58;;;;;;;14.43;6.28;;;;;;;5.03;70.31;101179.44;5002120;28;20403;-72
2021/03/17 11:18:32;;;;;;;14.15;5.75;;;;;;;5.26;69.84;101172.19;5003525;28;20061;-72
2021/03/17 11:21:07;;;;;;;11.25;5.28;;;;;;;5.59;67.78;101184.38;5001215;28;20030;-72
2021/03/17 11:23:38;;;;;;;10.82;5.45;;;;;;;5.64;66.96;101181.00;5001192;28;20058;-73
2021/03/17 11:26:37;;;;;;;12.07;5.38;;;;;;;5.70;66.25;101175.03;5004455;28;20604;-72
2021/03/17 11:29:22;;;;;;;9.10;4.68;;;;;;;5.87;66.30;101172.81;4999627;28;20053;-73
2021/03/17 11:31:50;;;;;;;9.23;4.80;;;;;;;5.86;65.59;101177.16;5003717;28;20088;-73
2021/03/17 11:34:16;;;;;;;7.68;4.05;;;;;;;5.75;64.94;101172.53;5008674;28;20029;-73
2021/03/17 11:36:42;;;;;;;8.88;4.07;;;;;;;5.63;65.58;101179.25;5016793;28;20084;-73
2021/03/17 11:39:11;;;;;;;7.57;3.65;;;;;;;5.39;66.01;101181.25;5000980;28;20042;-73
2021/03/17 11:41:37;;;;;;;9.48;4.15;;;;;;;5.27;66.46;101168.75;5002073;28;20038;-73
2021/03/17 11:44:03;;;;;;;5.80;3.65;;;;;;;5.07;66.66;101177.81;5004430;28;20038;-72
2021/03/17 11:46:29;;;;;;;7.45;3.67;;;;;;;4.96;67.77;101181.00;5003937;28;20472;-73
2021/03/17 11:48:54;;;;;;;8.57;3.72;;;;;;;4.89;68.00;101180.81;4993256;28;20034;-72
2021/03/17 11:51:21;;;;;;;8.98;3.97;;;;;;;4.92;67.90;101183.50;5003335;28;20169;-73
2021/03/17 11:53:46;;;;;;;9.23;3.92;;;;;;;4.87;67.97;101182.47;5003266;28;20041;-73